createdAt,value
2019-05-21T00:00:31.064Z,3.90
2019-05-21T00:03:01.530Z,3.80
2019-05-21T00:05:33.098Z,3.95
2019-05-21T00:08:03.498Z,4.10
2019-05-21T00:10:33.853Z,4.10
2019-05-21T00:13:04.286Z,3.87
2019-05-21T00:15:36.153Z,4.35
2019-05-21T00:18:06.569Z,3.80
2019-05-21T00:20:36.918Z,4.15
2019-05-21T00:23:07.335Z,3.95
2019-05-21T00:25:37.683Z,3.83
2019-05-21T00:28:30.348Z,3.95
2019-05-21T00:34:24.470Z,4.00
2019-05-21T00:37:31.081Z,4.33
2019-05-21T00:40:37.746Z,4.58
2019-05-21T00:43:09.418Z,4.53
2019-05-21T00:45:39.824Z,5.03
2019-05-21T00:48:10.242Z,4.55
2019-05-21T00:50:40.610Z,4.78
2019-05-21T00:53:11.008Z,5.22
2019-05-21T00:55:41.357Z,5.22
2019-05-21T00:58:11.770Z,5.10
2019-05-21T01:00:43.187Z,5.33
2019-05-21T01:03:13.597Z,5.28
2019-05-21T01:05:44.300Z,5.30
2019-05-21T01:08:14.698Z,5.78
2019-05-21T01:10:45.113Z,5.28
2019-05-21T01:13:15.529Z,5.70
2019-05-21T01:15:45.941Z,5.75
2019-05-21T01:18:16.626Z,5.92
2019-05-21T01:20:47.054Z,6.42
2019-05-21T01:23:17.435Z,5.90
2019-05-21T01:25:47.842Z,6.33
2019-05-21T01:28:18.186Z,6.50
2019-05-21T01:30:48.617Z,6.17
2019-05-21T01:33:18.956Z,6.30
2019-05-21T01:35:49.389Z,6.45
2019-05-21T01:38:19.785Z,5.70
2019-05-21T01:40:50.178Z,6.15
2019-05-21T01:43:20.573Z,6.17
2019-05-21T01:45:50.946Z,6.75
2019-05-21T01:48:21.461Z,6.58
2019-05-21T01:50:51.802Z,6.50
2019-05-21T01:53:22.223Z,7.03
2019-05-21T01:55:52.593Z,7.28
2019-05-21T01:58:23.016Z,7.10
2019-05-21T02:00:53.463Z,7.30
2019-05-21T02:03:23.900Z,7.20
2019-05-21T02:05:54.342Z,7.45
2019-05-21T02:08:24.787Z,7.75
2019-05-21T02:10:55.398Z,8.23
2019-05-21T02:13:25.826Z,7.28
2019-05-21T02:15:56.188Z,8.15
2019-05-21T02:18:26.602Z,8.25
2019-05-21T02:20:56.954Z,7.97
2019-05-21T02:23:27.391Z,8.28
2019-05-21T02:25:57.756Z,8.05
2019-05-21T02:28:28.149Z,8.90
2019-05-21T02:30:58.566Z,8.58
2019-05-21T02:33:29.004Z,8.68
2019-05-21T02:35:59.400Z,8.65
2019-05-21T02:38:29.822Z,8.13
2019-05-21T02:41:00.273Z,8.38
2019-05-21T02:43:30.690Z,8.58
2019-05-21T02:46:01.045Z,9.10
2019-05-21T02:48:31.493Z,9.60
2019-05-21T02:51:01.868Z,9.38
2019-05-21T02:53:34.550Z,8.83
2019-05-21T02:56:04.261Z,9.30
2019-05-21T02:58:34.685Z,9.43
2019-05-21T03:01:17.682Z,9.53
2019-05-21T03:03:47.519Z,9.60
2019-05-21T03:06:18.104Z,9.75
2019-05-21T03:08:48.517Z,9.00
2019-05-21T03:11:18.974Z,9.23
2019-05-21T03:13:49.399Z,8.98
2019-05-21T03:16:19.752Z,9.20
2019-05-21T03:18:50.192Z,9.78
2019-05-21T03:21:20.559Z,10.08
2019-05-21T03:23:50.982Z,10.43
2019-05-21T03:26:21.352Z,10.30
2019-05-21T03:28:53.106Z,10.13
2019-05-21T03:31:23.572Z,10.38
2019-05-21T03:33:53.937Z,10.03
2019-05-21T03:36:33.306Z,10.60
2019-05-21T03:38:56.376Z,10.53
2019-05-21T03:41:26.799Z,10.40
2019-05-21T03:43:57.173Z,10.53
2019-05-21T03:46:27.999Z,10.53
2019-05-21T03:48:58.385Z,11.60
2019-05-21T03:51:28.929Z,12.25
2019-05-21T03:53:59.313Z,12.88
2019-05-21T03:56:29.749Z,13.95
2019-05-21T03:59:00.211Z,14.60
2019-05-21T04:01:30.618Z,13.75
2019-05-21T04:04:00.982Z,14.23
2019-05-21T04:06:31.487Z,15.48
2019-05-21T04:09:01.868Z,15.00
2019-05-21T04:11:33.574Z,15.95
2019-05-21T04:14:04.222Z,15.20
2019-05-21T04:16:48.339Z,14.65
2019-05-21T04:19:26.351Z,13.95
2019-05-21T04:21:56.731Z,13.13
2019-05-21T04:24:27.168Z,12.98
2019-05-21T04:26:57.775Z,13.35
2019-05-21T04:29:28.182Z,12.80
2019-05-21T04:31:59.537Z,12.50
2019-05-21T04:34:30.274Z,12.03
2019-05-21T04:37:10.833Z,10.50
2019-05-21T04:39:32.877Z,11.22
2019-05-21T04:42:03.347Z,10.58
2019-05-21T04:44:35.064Z,10.82
2019-05-21T04:47:05.441Z,10.63
2019-05-21T04:49:35.881Z,10.40
2019-05-21T04:52:06.304Z,10.35
2019-05-21T04:54:36.657Z,10.18
2019-05-21T04:57:07.318Z,10.88
2019-05-21T04:59:37.683Z,10.40
2019-05-21T05:02:08.109Z,9.13
2019-05-21T05:04:38.525Z,10.75
2019-05-21T05:07:08.944Z,9.95
2019-05-21T05:09:39.369Z,9.00
2019-05-21T05:12:09.777Z,9.63
2019-05-21T05:14:41.708Z,9.20
2019-05-21T05:17:12.133Z,9.43
2019-05-21T05:19:42.642Z,9.68
2019-05-21T05:22:13.000Z,9.50
2019-05-21T05:24:43.431Z,9.68
2019-05-21T05:27:13.806Z,9.48
2019-05-21T05:29:44.232Z,10.72
2019-05-21T05:32:14.615Z,10.20
2019-05-21T05:34:45.052Z,10.60
2019-05-21T05:37:15.401Z,10.38
2019-05-21T05:39:45.852Z,10.93
2019-05-21T05:42:16.401Z,10.65
2019-05-21T05:44:47.376Z,11.43
2019-05-21T05:47:17.778Z,11.85
2019-05-21T05:49:49.772Z,11.75
2019-05-21T05:52:20.230Z,11.08
2019-05-21T05:54:50.712Z,11.57
2019-05-21T05:57:21.189Z,11.40
2019-05-21T05:59:51.549Z,11.38
2019-05-21T06:02:22.009Z,11.85
2019-05-21T06:04:52.439Z,11.68
2019-05-21T06:07:22.885Z,11.38
2019-05-21T06:09:53.306Z,11.00
2019-05-21T06:12:23.842Z,11.28
2019-05-21T06:14:54.413Z,11.65
2019-05-21T06:17:25.158Z,11.78
2019-05-21T06:19:55.613Z,10.70
2019-05-21T06:22:26.105Z,10.60
2019-05-21T06:24:56.551Z,11.40
2019-05-21T06:27:26.928Z,11.60
2019-05-21T06:29:57.358Z,11.43
2019-05-21T06:32:27.743Z,11.65
2019-05-21T06:34:58.141Z,12.37
2019-05-21T06:37:28.583Z,10.95
2019-05-21T06:39:59.894Z,10.60
2019-05-21T06:42:30.359Z,11.43
2019-05-21T06:45:00.851Z,10.68
2019-05-21T06:47:31.322Z,10.80
2019-05-21T06:50:01.827Z,10.78
2019-05-21T06:52:32.253Z,11.30
2019-05-21T06:55:02.670Z,11.43
2019-05-21T06:57:33.078Z,10.32
2019-05-21T07:00:04.829Z,11.35
2019-05-21T07:02:35.336Z,11.90
2019-05-21T07:05:06.160Z,11.12
2019-05-21T07:07:36.565Z,11.30
2019-05-21T07:10:08.344Z,11.18
2019-05-21T07:12:38.788Z,12.05
2019-05-21T07:15:10.626Z,11.28
2019-05-21T07:17:41.050Z,11.18
2019-05-21T07:20:12.903Z,12.03
2019-05-21T07:22:43.372Z,12.25
2019-05-21T07:25:14.730Z,11.88
2019-05-21T07:27:45.506Z,12.13
2019-05-21T07:30:16.141Z,11.65
2019-05-21T07:32:46.539Z,11.80
2019-05-21T07:35:17.044Z,11.08
2019-05-21T07:37:47.479Z,14.33
2019-05-21T07:40:18.362Z,15.60
2019-05-21T07:42:48.786Z,14.13
2019-05-21T07:45:19.151Z,14.68
2019-05-21T07:47:49.577Z,14.07
2019-05-21T07:50:19.977Z,14.30
2019-05-21T07:52:51.518Z,12.82
2019-05-21T07:55:21.901Z,9.98
2019-05-21T07:57:52.314Z,8.78
2019-05-21T08:00:22.905Z,13.72
2019-05-21T08:02:53.424Z,11.78
2019-05-21T08:05:23.810Z,15.80
2019-05-21T08:07:54.204Z,15.05
2019-05-21T08:10:24.668Z,16.00
2019-05-21T08:12:55.037Z,14.78
2019-05-21T08:15:25.480Z,15.15
2019-05-21T08:17:56.064Z,14.73
2019-05-21T08:20:27.886Z,13.10
2019-05-21T08:22:58.329Z,12.75
2019-05-21T08:25:28.682Z,12.98
2019-05-21T08:27:59.123Z,10.82
2019-05-21T08:30:29.502Z,12.15
2019-05-21T08:32:59.926Z,10.78
2019-05-21T08:35:30.301Z,11.10
2019-05-21T08:38:00.730Z,11.33
2019-05-21T08:40:32.093Z,12.70
2019-05-21T08:43:02.532Z,10.93
2019-05-21T08:45:32.989Z,10.95
2019-05-21T08:48:04.144Z,10.63
2019-05-21T08:50:37.536Z,9.85
2019-05-21T08:53:10.313Z,6.40
2019-05-21T08:55:40.657Z,5.30
2019-05-21T08:58:11.823Z,5.22
2019-05-21T09:00:48.741Z,5.50
2019-05-21T09:03:29.246Z,5.97
2019-05-21T09:06:00.168Z,5.70
2019-05-21T09:08:30.656Z,5.75
2019-05-21T09:11:01.013Z,6.83
2019-05-21T09:13:32.115Z,7.17
2019-05-21T09:16:02.497Z,6.40
2019-05-21T09:18:33.220Z,6.17
2019-05-21T09:21:04.831Z,6.08
2019-05-21T09:23:35.642Z,6.50
2019-05-21T09:26:06.216Z,6.83
2019-05-21T09:28:36.652Z,6.70
2019-05-21T09:31:07.050Z,6.20
2019-05-21T09:33:37.445Z,6.92
2019-05-21T09:36:07.838Z,6.33
2019-05-21T09:38:38.284Z,6.78
2019-05-21T09:41:08.696Z,6.30
2019-05-21T09:43:39.126Z,7.85
2019-05-21T09:46:09.470Z,7.33
2019-05-21T09:48:40.968Z,8.10
2019-05-21T09:51:19.489Z,7.55
2019-05-21T09:53:43.487Z,8.28
2019-05-21T09:56:32.754Z,9.05
2019-05-21T09:59:10.122Z,9.58
2019-05-21T10:01:42.276Z,9.98
2019-05-21T10:04:15.215Z,9.93
2019-05-21T10:06:48.140Z,9.78
2019-05-21T10:09:21.036Z,9.63
2019-05-21T10:11:52.378Z,9.13
2019-05-21T10:14:24.893Z,9.75
2019-05-21T10:16:56.989Z,10.03
2019-05-21T10:19:27.662Z,10.05
2019-05-21T10:21:58.096Z,10.55
2019-05-21T10:24:28.519Z,11.00
2019-05-21T10:26:58.925Z,11.70
2019-05-21T10:29:29.288Z,11.33
2019-05-21T10:31:59.710Z,10.93
2019-05-21T10:34:30.097Z,11.50
2019-05-21T10:37:00.491Z,11.43
2019-05-21T10:39:30.977Z,11.18
2019-05-21T10:42:01.394Z,10.03
2019-05-21T10:44:31.818Z,11.33
2019-05-21T10:47:02.358Z,11.25
2019-05-21T10:49:32.891Z,11.10
2019-05-21T10:52:03.318Z,12.90
2019-05-21T10:54:33.730Z,11.90
2019-05-21T10:57:04.256Z,11.75
2019-05-21T10:59:34.702Z,10.82
2019-05-21T11:02:12.825Z,12.50
2019-05-21T11:04:45.089Z,12.33
2019-05-21T11:07:17.002Z,12.15
2019-05-21T11:09:47.532Z,12.30
2019-05-21T11:12:17.916Z,10.88
2019-05-21T11:14:48.348Z,11.28
2019-05-21T11:17:18.923Z,10.30
2019-05-21T11:19:49.377Z,9.80
2019-05-21T11:22:19.845Z,7.58
2019-05-21T11:24:50.209Z,10.80
2019-05-21T11:27:20.663Z,9.55
2019-05-21T11:29:51.120Z,10.30
2019-05-21T11:32:21.548Z,11.00
2019-05-21T11:34:52.160Z,9.88
2019-05-21T11:37:22.633Z,10.78
2019-05-21T11:39:53.061Z,8.23
2019-05-21T11:42:23.494Z,8.30
2019-05-21T11:44:53.938Z,9.28
2019-05-21T11:47:24.294Z,8.40
2019-05-21T11:49:54.702Z,9.25
2019-05-21T11:52:25.100Z,8.83
2019-05-21T11:54:56.037Z,8.28
2019-05-21T11:57:26.761Z,9.08
2019-05-21T11:59:57.180Z,8.13
2019-05-21T12:02:27.564Z,9.53
2019-05-21T12:04:57.928Z,9.95
2019-05-21T12:07:28.369Z,9.18
2019-05-21T12:09:58.869Z,10.20
2019-05-21T12:12:29.307Z,10.10
2019-05-21T12:14:59.721Z,9.55
2019-05-21T12:17:30.413Z,10.38
2019-05-21T12:20:00.841Z,9.58
2019-05-21T12:22:31.252Z,10.30
2019-05-21T12:25:01.654Z,10.00
2019-05-21T12:27:32.111Z,10.53
2019-05-21T12:30:02.526Z,9.50
2019-05-21T12:32:32.998Z,10.40
2019-05-21T12:35:03.436Z,10.55
2019-05-21T12:37:33.888Z,10.40
2019-05-21T12:40:07.001Z,10.53
2019-05-21T12:42:37.536Z,10.00
2019-05-21T12:45:08.122Z,9.25
2019-05-21T12:47:38.510Z,11.30
2019-05-21T12:50:10.035Z,11.60
2019-05-21T12:52:40.416Z,11.20
2019-05-21T12:55:12.005Z,10.88
2019-05-21T12:57:42.372Z,10.50
2019-05-21T13:00:14.384Z,11.38
2019-05-21T13:02:44.802Z,10.08
2019-05-21T13:05:15.709Z,12.47
2019-05-21T13:07:46.187Z,12.88
2019-05-21T13:10:16.790Z,11.53
2019-05-21T13:12:47.225Z,11.38
2019-05-21T13:15:17.683Z,9.78
2019-05-21T13:17:48.155Z,10.95
2019-05-21T13:20:19.199Z,10.75
2019-05-21T13:22:49.659Z,11.63
2019-05-21T13:25:20.196Z,11.45
2019-05-21T13:27:50.566Z,12.25
2019-05-21T13:30:22.209Z,12.28
2019-05-21T13:32:52.593Z,12.25
2019-05-21T13:35:23.025Z,11.70
2019-05-21T13:37:53.405Z,10.95
2019-05-21T13:40:24.346Z,11.03
2019-05-21T13:42:54.803Z,10.80
2019-05-21T13:45:25.377Z,10.58
2019-05-21T13:47:55.868Z,10.68
2019-05-21T13:50:26.305Z,10.50
2019-05-21T13:52:56.741Z,10.38
2019-05-21T13:55:27.194Z,9.65
2019-05-21T13:57:57.662Z,10.75
2019-05-21T14:00:39.141Z,10.72
2019-05-21T14:03:09.504Z,10.98
2019-05-21T14:05:40.077Z,10.30
2019-05-21T14:08:10.627Z,10.23
2019-05-21T14:10:41.613Z,11.12
2019-05-21T14:13:12.168Z,11.33
2019-05-21T14:15:42.546Z,12.07
2019-05-21T14:18:13.352Z,12.45
2019-05-21T14:20:43.781Z,10.35
2019-05-21T14:23:14.160Z,10.18
2019-05-21T14:25:45.696Z,11.30
2019-05-21T14:28:16.056Z,12.37
2019-05-21T14:30:51.215Z,12.18
2019-05-21T14:33:22.528Z,11.48
2019-05-21T14:35:52.885Z,12.85
2019-05-21T14:38:23.267Z,19.25
2019-05-21T14:40:53.711Z,18.55
2019-05-21T14:43:24.090Z,17.92
2019-05-21T14:45:54.686Z,19.02
2019-05-21T14:48:25.128Z,19.57
2019-05-21T14:50:55.481Z,19.25
2019-05-21T14:53:25.865Z,18.82
2019-05-21T14:55:56.287Z,20.40
2019-05-21T14:58:26.715Z,20.15
2019-05-21T15:00:57.214Z,21.23
2019-05-21T15:03:29.497Z,21.30
2019-05-21T15:05:59.646Z,21.82
2019-05-21T15:08:30.017Z,21.33
2019-05-21T15:11:00.487Z,20.60
2019-05-21T15:13:30.850Z,22.45
2019-05-21T15:16:01.282Z,20.75
2019-05-21T15:18:31.755Z,20.70
2019-05-21T15:21:04.126Z,20.65
2019-05-21T15:23:35.036Z,21.40
2019-05-21T15:26:05.604Z,21.55
2019-05-21T15:28:36.054Z,21.82
2019-05-21T15:31:06.589Z,22.13
2019-05-21T15:33:37.051Z,21.87
2019-05-21T15:36:07.479Z,19.98
2019-05-21T15:38:49.292Z,20.30
2019-05-21T15:41:12.421Z,21.35
2019-05-21T15:43:41.934Z,19.15
2019-05-21T15:46:12.371Z,19.67
2019-05-21T15:48:42.784Z,19.45
2019-05-21T15:51:13.247Z,20.17
2019-05-21T15:53:43.727Z,20.92
2019-05-21T15:56:14.149Z,20.30
2019-05-21T15:58:44.599Z,20.43
2019-05-21T16:01:15.009Z,19.23
2019-05-21T16:03:45.374Z,20.08
2019-05-21T16:06:15.789Z,20.08
2019-05-21T16:08:46.254Z,19.02
2019-05-21T16:11:28.139Z,19.12
2019-05-21T16:13:48.808Z,19.40
2019-05-21T16:16:19.586Z,17.75
2019-05-21T16:18:50.030Z,19.20
2019-05-21T16:21:20.457Z,19.82
2019-05-21T16:23:50.981Z,19.87
2019-05-21T16:26:23.415Z,21.55
2019-05-21T16:28:53.480Z,18.12
2019-05-21T16:31:23.928Z,18.70
2019-05-21T16:33:54.466Z,19.32
2019-05-21T16:36:24.900Z,19.90
2019-05-21T16:38:55.447Z,20.85
2019-05-21T16:41:26.101Z,18.42
2019-05-21T16:43:57.755Z,19.12
2019-05-21T16:46:28.117Z,19.23
2019-05-21T16:48:58.492Z,18.45
2019-05-21T16:51:29.101Z,19.37
2019-05-21T16:53:59.592Z,17.65
2019-05-21T16:56:29.976Z,18.85
2019-05-21T16:59:01.874Z,18.80
2019-05-21T17:01:32.353Z,18.92
2019-05-21T17:04:02.810Z,19.77
2019-05-21T17:06:33.320Z,19.42
2019-05-21T17:09:05.541Z,18.40
2019-05-21T17:11:38.987Z,18.35
2019-05-21T17:14:12.038Z,19.95
2019-05-21T17:16:42.481Z,18.07
2019-05-21T17:19:12.854Z,18.57
2019-05-21T17:21:43.283Z,19.27
2019-05-21T17:24:14.937Z,17.50
2019-05-21T17:26:46.087Z,19.20
2019-05-21T17:29:17.547Z,18.20
2019-05-21T17:31:48.213Z,18.90
2019-05-21T17:34:18.719Z,17.35
2019-05-21T17:36:49.146Z,18.62
2019-05-21T17:39:19.567Z,18.45
2019-05-21T17:41:50.010Z,18.67
2019-05-21T17:44:20.425Z,19.65
2019-05-21T17:46:50.890Z,19.10
2019-05-21T17:49:21.526Z,18.77
2019-05-21T17:51:52.134Z,19.87
2019-05-21T17:54:23.046Z,19.25
2019-05-21T17:56:53.588Z,20.82
2019-05-21T17:59:24.016Z,18.92
2019-05-21T18:01:55.188Z,19.95
2019-05-21T18:04:26.367Z,19.65
2019-05-21T18:06:58.296Z,19.82
2019-05-21T18:09:28.963Z,19.50
2019-05-21T18:11:59.696Z,23.75
2019-05-21T18:14:30.905Z,20.80
2019-05-21T18:17:01.454Z,19.73
2019-05-21T18:19:32.380Z,19.37
2019-05-21T18:22:05.791Z,19.02
2019-05-21T18:24:36.202Z,19.12
2019-05-21T18:27:06.670Z,19.35
2019-05-21T18:29:37.096Z,18.90
2019-05-21T18:32:07.546Z,19.35
2019-05-21T18:34:39.054Z,20.02
2019-05-21T18:37:09.485Z,20.15
2019-05-21T18:39:40.000Z,20.12
2019-05-21T18:42:21.682Z,20.10
2019-05-21T18:44:43.793Z,19.85
2019-05-21T18:47:14.276Z,20.88
2019-05-21T18:49:44.678Z,20.92
2019-05-21T18:52:15.053Z,21.12
2019-05-21T18:54:47.783Z,21.02
2019-05-21T18:57:17.488Z,19.65
2019-05-21T18:59:47.915Z,24.25
2019-05-21T19:02:18.378Z,22.05
2019-05-21T19:04:49.638Z,23.30
2019-05-21T19:07:20.015Z,22.17
2019-05-21T19:09:51.123Z,22.25
2019-05-21T19:12:37.613Z,23.18
2019-05-21T19:14:58.926Z,23.62
2019-05-21T19:17:35.426Z,22.90
2019-05-21T19:20:01.368Z,25.77
2019-05-21T19:22:31.813Z,24.45
2019-05-21T19:25:02.246Z,23.67
2019-05-21T19:27:34.451Z,26.95
2019-05-21T19:30:06.575Z,27.42
2019-05-21T19:32:37.891Z,27.35
2019-05-21T19:35:09.374Z,26.00
2019-05-21T19:37:39.800Z,26.63
2019-05-21T19:40:10.666Z,29.05
2019-05-21T19:42:53.777Z,27.00
2019-05-21T19:45:14.801Z,27.35
2019-05-21T19:50:16.189Z,28.00
2019-05-21T19:52:46.695Z,29.70
2019-05-21T19:55:18.446Z,29.65
2019-05-21T19:57:48.870Z,29.72
2019-05-21T20:00:22.369Z,31.20
2019-05-21T20:02:53.391Z,30.55
2019-05-21T20:05:24.156Z,31.60
2019-05-21T20:07:54.928Z,31.52
2019-05-21T20:10:25.738Z,30.27
2019-05-21T20:12:58.505Z,29.75
2019-05-21T20:18:06.976Z,31.50
2019-05-21T20:20:32.386Z,31.73
2019-05-21T20:23:03.015Z,31.60
2019-05-21T20:25:35.045Z,31.48
2019-05-21T20:28:06.798Z,31.48
2019-05-21T20:30:37.192Z,30.43
2019-05-21T20:33:07.757Z,31.97
2019-05-21T20:35:39.273Z,31.37
2019-05-21T20:38:10.643Z,32.83
2019-05-21T20:40:41.871Z,31.95
2019-05-21T20:43:13.343Z,31.25
2019-05-21T20:45:43.765Z,31.77
2019-05-21T20:48:16.915Z,31.52
2019-05-21T20:50:48.023Z,31.10
2019-05-21T20:53:19.477Z,30.45
2019-05-21T20:55:49.849Z,30.80
2019-05-21T20:58:20.253Z,29.50
2019-05-21T21:00:55.389Z,27.75
2019-05-21T21:03:25.745Z,29.30
2019-05-21T21:05:56.281Z,29.23
2019-05-21T21:08:28.446Z,29.27
2019-05-21T21:13:30.237Z,30.72
2019-05-21T21:16:00.777Z,32.75
2019-05-21T21:18:31.576Z,31.68
2019-05-21T21:21:02.090Z,32.17
2019-05-21T21:23:33.201Z,33.30
2019-05-21T21:26:04.890Z,32.93
2019-05-21T21:28:35.308Z,32.42
2019-05-21T21:31:07.246Z,33.53
2019-05-21T21:33:38.371Z,31.75
2019-05-21T21:36:09.006Z,31.15
2019-05-21T21:38:39.545Z,31.45
2019-05-21T21:41:09.976Z,32.45
2019-05-21T21:43:40.434Z,33.65
2019-05-21T21:46:10.854Z,33.90
2019-05-21T21:48:45.296Z,30.40
2019-05-21T21:51:15.789Z,30.17
2019-05-21T21:53:46.747Z,36.23
2019-05-21T21:56:17.264Z,36.88
2019-05-21T21:58:47.621Z,37.33
2019-05-21T22:01:28.306Z,37.75
2019-05-21T22:04:02.500Z,36.77
2019-05-21T22:06:35.855Z,37.93
2019-05-21T22:09:08.400Z,37.80
2019-05-21T22:11:39.615Z,37.00
2019-05-21T22:14:10.477Z,36.00
2019-05-21T22:16:41.006Z,37.38
2019-05-21T22:19:12.787Z,37.80
2019-05-21T22:21:44.506Z,38.67
2019-05-21T22:24:15.052Z,37.65
2019-05-21T22:26:45.490Z,38.25
2019-05-21T22:29:15.923Z,37.58
2019-05-21T22:31:47.008Z,37.25
2019-05-21T22:34:17.689Z,37.45
2019-05-21T22:36:48.123Z,36.25
2019-05-21T22:39:20.136Z,38.15
2019-05-21T22:41:50.634Z,36.53
2019-05-21T22:44:21.069Z,37.03
2019-05-21T22:46:51.486Z,36.93
2019-05-21T22:49:22.942Z,39.48
2019-05-21T22:51:53.438Z,37.40
2019-05-21T22:54:24.795Z,39.10
2019-05-21T22:57:09.240Z,37.30
2019-05-21T22:59:45.205Z,37.50
2019-05-21T23:02:18.336Z,33.50
2019-05-21T23:04:49.891Z,35.15
2019-05-21T23:07:20.465Z,34.58
2019-05-21T23:09:59.290Z,37.67
2019-05-21T23:12:34.712Z,33.02
2019-05-21T23:15:23.852Z,33.42
2019-05-21T23:17:45.610Z,37.73
2019-05-21T23:20:37.548Z,35.08
2019-05-21T23:23:13.017Z,34.70
2019-05-21T23:26:02.748Z,34.75
2019-05-21T23:31:10.795Z,33.38
2019-05-21T23:33:53.240Z,35.52
2019-05-21T23:36:30.475Z,33.35
2019-05-21T23:39:03.238Z,33.25
2019-05-21T23:41:44.166Z,32.90
2019-05-21T23:44:17.453Z,31.65
2019-05-21T23:46:56.178Z,34.58
2019-05-21T23:49:31.626Z,40.73
2019-05-21T23:52:05.016Z,39.13
2019-05-21T23:54:45.802Z,41.23
2019-05-21T23:57:18.008Z,39.45
2019-05-21T23:59:48.391Z,34.30
